createdAt,value
2019-01-21T00:01:13.802Z,5.27
2019-01-21T00:03:42.869Z,6.07
2019-01-21T00:06:13.330Z,6.00
2019-01-21T00:08:42.394Z,5.83
2019-01-21T00:11:11.354Z,5.33
2019-01-21T00:13:40.416Z,7.40
2019-01-21T00:16:09.521Z,8.30
2019-01-21T00:18:38.506Z,6.47
2019-01-21T00:21:07.480Z,6.47
2019-01-21T00:23:36.548Z,6.13
2019-01-21T00:26:05.574Z,8.53
2019-01-21T00:28:34.578Z,6.93
2019-01-21T00:31:03.640Z,6.27
2019-01-21T00:33:32.701Z,8.57
2019-01-21T00:36:01.797Z,8.40
2019-01-21T00:38:30.826Z,7.13
2019-01-21T00:40:59.814Z,5.80
2019-01-21T00:43:28.861Z,7.23
2019-01-21T00:45:57.923Z,5.83
2019-01-21T00:48:26.875Z,5.83
2019-01-21T00:50:55.936Z,6.87
2019-01-21T00:53:24.977Z,5.97
2019-01-21T00:55:53.933Z,6.00
2019-01-21T00:58:22.880Z,6.67
2019-01-21T01:00:51.890Z,6.83
2019-01-21T01:03:20.899Z,7.57
2019-01-21T01:05:50.010Z,5.77
2019-01-21T01:08:19.019Z,6.77
2019-01-21T01:10:48.027Z,6.83
2019-01-21T01:13:17.068Z,7.50
2019-01-21T01:15:46.127Z,6.03
2019-01-21T01:18:15.082Z,6.07
2019-01-21T01:20:44.066Z,9.67
2019-01-21T01:23:13.046Z,5.33
2019-01-21T01:25:42.077Z,7.20
2019-01-21T01:28:11.154Z,5.73
2019-01-21T01:30:40.179Z,6.47
2019-01-21T01:33:09.248Z,6.03
2019-01-21T01:35:38.326Z,6.30
2019-01-21T01:38:07.344Z,7.33
2019-01-21T01:40:36.401Z,6.13
2019-01-21T01:43:05.469Z,6.80
2019-01-21T01:45:34.917Z,7.00
2019-01-21T01:48:04.586Z,5.73
2019-01-21T01:50:33.644Z,5.83
2019-01-21T01:53:02.690Z,5.97
2019-01-21T01:55:32.566Z,5.97
2019-01-21T01:58:03.280Z,6.57
2019-01-21T02:00:32.349Z,8.03
2019-01-21T02:03:01.485Z,6.80
2019-01-21T02:05:30.533Z,7.93
2019-01-21T02:08:00.718Z,8.43
2019-01-21T02:10:30.157Z,6.73
2019-01-21T02:12:59.209Z,7.03
2019-01-21T02:15:28.230Z,6.07
2019-01-21T02:17:57.228Z,6.00
2019-01-21T02:20:26.279Z,6.17
2019-01-21T02:22:58.482Z,7.17
2019-01-21T02:25:35.186Z,6.80
2019-01-21T02:28:53.865Z,6.93
2019-01-21T02:31:58.740Z,6.17
2019-01-21T02:34:52.705Z,7.97
2019-01-21T02:38:08.714Z,6.97
2019-01-21T02:41:09.633Z,7.07
2019-01-21T02:43:53.378Z,6.57
2019-01-21T02:47:06.581Z,6.83
2019-01-21T02:50:18.690Z,7.17
2019-01-21T02:52:58.838Z,7.37
2019-01-21T02:56:07.396Z,7.37
2019-01-21T02:58:57.793Z,7.20
2019-01-21T03:02:04.894Z,6.57
2019-01-21T03:05:04.858Z,6.07
2019-01-21T03:07:44.638Z,6.20
2019-01-21T03:10:39.454Z,6.57
2019-01-21T03:14:00.793Z,8.77
2019-01-21T03:16:55.574Z,8.17
2019-01-21T03:19:57.740Z,8.57
2019-01-21T03:23:19.807Z,7.07
2019-01-21T03:26:25.712Z,7.07
2019-01-21T03:29:27.465Z,8.00
2019-01-21T03:32:38.342Z,7.20
2019-01-21T03:35:44.118Z,8.03
2019-01-21T03:38:52.994Z,6.37
2019-01-21T03:42:07.401Z,7.47
2019-01-21T03:45:16.005Z,8.00
2019-01-21T03:47:52.504Z,8.03
2019-01-21T03:51:18.034Z,9.53
2019-01-21T03:53:57.931Z,7.20
2019-01-21T03:57:07.068Z,6.17
2019-01-21T04:00:24.960Z,6.97
2019-01-21T04:03:24.714Z,7.60
2019-01-21T04:06:25.236Z,7.30
2019-01-21T04:09:31.093Z,6.50
2019-01-21T04:12:43.882Z,6.33
2019-01-21T04:16:00.025Z,8.93
2019-01-21T04:18:48.079Z,6.87
2019-01-21T04:22:03.463Z,5.90
2019-01-21T04:25:08.372Z,7.63
2019-01-21T04:28:14.689Z,8.47
2019-01-21T04:31:13.313Z,7.40
2019-01-21T04:33:56.690Z,7.70
2019-01-21T04:37:19.075Z,6.63
2019-01-21T04:40:05.992Z,6.17
2019-01-21T04:43:17.785Z,6.17
2019-01-21T04:46:25.925Z,7.10
2019-01-21T04:49:31.287Z,7.77
2019-01-21T04:52:39.362Z,7.10
2019-01-21T04:55:43.726Z,8.50
2019-01-21T04:58:49.581Z,7.37
2019-01-21T05:01:42.250Z,6.77
2019-01-21T05:04:30.125Z,6.50
2019-01-21T05:07:38.229Z,6.90
2019-01-21T05:10:39.901Z,8.27
2019-01-21T05:13:43.923Z,6.20
2019-01-21T05:17:03.679Z,8.67
2019-01-21T05:19:39.105Z,8.27
2019-01-21T05:22:42.849Z,5.73
2019-01-21T05:25:56.251Z,7.00
2019-01-21T05:29:06.671Z,6.73
2019-01-21T05:32:19.922Z,7.67
2019-01-21T05:35:04.016Z,7.50
2019-01-21T05:37:58.003Z,7.17
2019-01-21T05:41:19.849Z,7.63
2019-01-21T05:44:20.189Z,7.57
2019-01-21T05:47:41.593Z,7.60
2019-01-21T05:50:34.670Z,6.93
2019-01-21T05:53:52.295Z,7.03
2019-01-21T05:56:57.545Z,7.33
2019-01-21T06:00:13.858Z,8.53
2019-01-21T06:03:48.522Z,7.33
2019-01-21T06:06:53.749Z,7.63
2019-01-21T06:10:03.026Z,7.63
2019-01-21T06:13:12.958Z,5.87
2019-01-21T06:16:07.617Z,6.90
2019-01-21T06:19:26.988Z,6.50
2019-01-21T06:22:55.627Z,8.07
2019-01-21T06:25:48.025Z,7.17
2019-01-21T06:29:07.354Z,7.27
2019-01-21T06:32:08.070Z,7.27
2019-01-21T06:35:20.392Z,6.67
2019-01-21T06:38:42.479Z,6.40
2019-01-21T06:41:39.585Z,6.17
2019-01-21T06:44:21.299Z,7.40
2019-01-21T06:47:13.962Z,6.03
2019-01-21T06:50:17.591Z,7.00
2019-01-21T06:53:15.938Z,6.17
2019-01-21T06:56:20.706Z,5.27
2019-01-21T06:59:24.030Z,5.60
2019-01-21T07:02:37.352Z,6.70
2019-01-21T07:05:43.371Z,5.47
2019-01-21T07:09:05.733Z,6.13
2019-01-21T07:12:21.320Z,6.90
2019-01-21T07:15:26.673Z,7.43
2019-01-21T07:18:28.849Z,6.77
2019-01-21T07:21:20.906Z,6.37
2019-01-21T07:24:33.993Z,6.73
2019-01-21T07:27:42.093Z,8.07
2019-01-21T07:30:46.644Z,6.77
2019-01-21T07:34:02.173Z,6.90
2019-01-21T07:36:49.693Z,5.80
2019-01-21T07:39:50.650Z,7.73
2019-01-21T07:42:38.456Z,6.27
2019-01-21T07:45:42.435Z,7.00
2019-01-21T07:48:31.204Z,5.13
2019-01-21T07:51:38.167Z,6.43
2019-01-21T07:54:22.828Z,7.43
2019-01-21T07:57:29.685Z,6.87
2019-01-21T08:00:13.463Z,6.43
2019-01-21T08:03:35.702Z,6.70
2019-01-21T08:06:36.307Z,7.23
2019-01-21T08:09:44.749Z,6.43
2019-01-21T08:12:41.884Z,6.37
2019-01-21T08:15:50.850Z,7.20
2019-01-21T08:19:24.291Z,5.93
2019-01-21T08:22:31.683Z,5.50
2019-01-21T08:25:43.506Z,6.43
2019-01-21T08:28:51.383Z,6.20
2019-01-21T08:31:36.283Z,7.13
2019-01-21T08:35:10.557Z,8.33
2019-01-21T08:38:24.744Z,7.70
2019-01-21T08:41:43.186Z,6.67
2019-01-21T08:44:50.218Z,6.00
2019-01-21T08:48:04.783Z,6.37
2019-01-21T08:51:07.138Z,6.57
2019-01-21T08:54:10.981Z,7.30
2019-01-21T08:56:59.622Z,10.10
2019-01-21T08:59:59.951Z,7.10
2019-01-21T09:03:09.086Z,6.93
2019-01-21T09:06:13.276Z,6.17
2019-01-21T09:09:16.623Z,6.13
2019-01-21T09:12:27.265Z,8.20
2019-01-21T09:15:04.731Z,6.53
2019-01-21T09:17:49.070Z,6.37
2019-01-21T09:20:45.881Z,6.43
2019-01-21T09:24:10.052Z,6.00
2019-01-21T09:27:35.609Z,6.23
2019-01-21T09:31:07.289Z,7.10
2019-01-21T09:34:26.929Z,6.77
2019-01-21T09:37:31.438Z,6.77
2019-01-21T09:40:47.608Z,6.40
2019-01-21T09:43:41.341Z,5.83
2019-01-21T09:46:45.250Z,6.40
2019-01-21T09:49:12.869Z,5.70
2019-01-21T09:52:02.410Z,6.67
2019-01-21T09:54:31.469Z,7.77
2019-01-21T09:57:02.217Z,6.80
2019-01-21T09:59:32.494Z,6.17
2019-01-21T10:02:03.422Z,6.47
2019-01-21T10:04:40.442Z,7.63
2019-01-21T10:07:30.853Z,6.13
2019-01-21T10:10:33.526Z,7.00
2019-01-21T10:13:49.128Z,6.70
2019-01-21T10:16:51.742Z,7.17
2019-01-21T10:19:59.039Z,7.67
2019-01-21T10:22:52.782Z,6.17
2019-01-21T10:26:08.791Z,5.70
2019-01-21T10:29:10.742Z,6.47
2019-01-21T10:32:22.921Z,7.07
2019-01-21T10:35:29.142Z,7.00
2019-01-21T10:38:41.273Z,6.33
2019-01-21T10:41:26.311Z,7.60
2019-01-21T10:44:25.834Z,8.30
2019-01-21T10:47:22.874Z,6.70
2019-01-21T10:50:29.193Z,6.87
2019-01-21T10:53:29.043Z,6.30
2019-01-21T10:56:26.455Z,7.27
2019-01-21T10:59:17.470Z,6.67
2019-01-21T11:02:22.794Z,6.37
2019-01-21T11:05:07.105Z,6.80
2019-01-21T11:08:12.926Z,6.93
2019-01-21T11:11:16.143Z,8.10
2019-01-21T11:14:35.340Z,6.07
2019-01-21T11:17:33.898Z,6.67
2019-01-21T11:20:50.097Z,7.60
2019-01-21T11:24:01.610Z,6.63
2019-01-21T11:27:12.025Z,6.67
2019-01-21T11:30:11.612Z,7.33
2019-01-21T11:33:14.538Z,6.43
2019-01-21T11:36:10.345Z,6.40
2019-01-21T11:39:10.337Z,6.47
2019-01-21T11:42:11.598Z,6.10
2019-01-21T11:44:49.199Z,5.67
2019-01-21T11:48:02.319Z,7.43
2019-01-21T11:50:56.735Z,6.00
2019-01-21T11:54:17.950Z,6.20
2019-01-21T11:57:00.065Z,6.20
2019-01-21T11:59:56.288Z,5.70
2019-01-21T12:02:50.414Z,6.27
2019-01-21T12:05:50.078Z,5.83
2019-01-21T12:08:59.990Z,5.73
2019-01-21T12:11:55.484Z,6.70
2019-01-21T12:15:17.885Z,6.20
2019-01-21T12:18:20.511Z,5.87
2019-01-21T12:21:37.219Z,5.83
2019-01-21T12:24:32.902Z,5.73
2019-01-21T12:27:36.527Z,5.10
2019-01-21T12:30:36.318Z,6.20
2019-01-21T12:33:41.088Z,5.60
2019-01-21T12:36:44.534Z,5.20
2019-01-21T12:39:50.478Z,5.63
2019-01-21T12:42:43.293Z,5.77
2019-01-21T12:45:33.885Z,5.87
2019-01-21T12:48:26.802Z,5.83
2019-01-21T12:51:46.498Z,5.20
2019-01-21T12:54:54.488Z,5.43
2019-01-21T12:57:58.906Z,5.53
2019-01-21T13:01:10.624Z,5.77
2019-01-21T13:04:25.876Z,5.30
2019-01-21T13:07:25.180Z,7.90
2019-01-21T13:10:43.943Z,5.97
2019-01-21T13:14:06.423Z,5.70
2019-01-21T13:17:21.561Z,5.17
2019-01-21T13:20:50.106Z,5.37
2019-01-21T13:23:52.807Z,5.27
2019-01-21T13:27:08.496Z,6.50
2019-01-21T13:29:51.525Z,4.20
2019-01-21T13:32:43.175Z,5.10
2019-01-21T13:35:25.558Z,6.13
2019-01-21T13:38:38.624Z,4.90
2019-01-21T13:41:50.374Z,5.27
2019-01-21T13:45:00.231Z,4.80
2019-01-21T13:48:07.715Z,4.27
2019-01-21T13:50:59.738Z,5.43
2019-01-21T13:54:05.922Z,4.83
2019-01-21T13:57:05.931Z,4.13
2019-01-21T14:00:22.217Z,4.17
2019-01-21T14:03:17.522Z,6.00
2019-01-21T14:06:26.923Z,4.67
2019-01-21T14:09:20.253Z,4.87
2019-01-21T14:12:17.450Z,4.27
2019-01-21T14:15:25.758Z,5.10
2019-01-21T14:18:25.977Z,5.10
2019-01-21T14:21:22.535Z,4.97
2019-01-21T14:24:20.203Z,5.63
2019-01-21T14:27:42.541Z,4.23
2019-01-21T14:31:05.475Z,4.80
2019-01-21T14:34:01.946Z,4.73
2019-01-21T14:37:21.043Z,4.63
2019-01-21T14:40:20.481Z,5.03
2019-01-21T14:43:39.510Z,4.40
2019-01-21T14:47:07.903Z,4.10
2019-01-21T14:50:09.055Z,5.00
2019-01-21T14:53:34.505Z,4.67
2019-01-21T14:56:32.726Z,4.63
2019-01-21T14:59:44.260Z,3.93
2019-01-21T15:02:55.431Z,4.10
2019-01-21T15:06:07.707Z,5.10
2019-01-21T15:08:46.025Z,4.03
2019-01-21T15:11:24.595Z,3.63
2019-01-21T15:14:10.212Z,4.00
2019-01-21T15:17:02.644Z,3.40
2019-01-21T15:20:15.923Z,4.60
2019-01-21T15:23:14.942Z,3.63
2019-01-21T15:26:19.490Z,4.60
2019-01-21T15:29:23.861Z,3.97
2019-01-21T15:32:16.482Z,3.80
2019-01-21T15:35:06.049Z,9.30
2019-01-21T15:38:10.268Z,4.43
2019-01-21T15:41:38.312Z,9.60
2019-01-21T15:44:31.172Z,8.43
2019-01-21T15:47:32.763Z,16.77
2019-01-21T15:50:18.086Z,9.10
2019-01-21T15:53:30.623Z,6.67
2019-01-21T15:56:31.146Z,5.77
2019-01-21T15:59:53.520Z,4.77
2019-01-21T16:03:01.425Z,5.07
2019-01-21T16:06:14.712Z,5.23
2019-01-21T16:09:02.066Z,4.50
2019-01-21T16:11:45.077Z,6.10
2019-01-21T16:14:23.959Z,3.40
2019-01-21T16:17:29.041Z,4.03
2019-01-21T16:20:09.395Z,3.90
2019-01-21T16:23:40.802Z,5.40
2019-01-21T16:26:13.947Z,11.00
2019-01-21T16:29:13.426Z,5.60
2019-01-21T16:32:14.222Z,5.10
2019-01-21T16:35:26.341Z,4.27
2019-01-21T16:38:21.713Z,4.50
2019-01-21T16:41:37.857Z,6.13
2019-01-21T16:44:06.893Z,5.53
2019-01-21T16:46:36.037Z,6.23
2019-01-21T16:49:05.066Z,3.37
2019-01-21T16:51:34.043Z,6.37
2019-01-21T16:54:03.066Z,5.23
2019-01-21T16:56:32.051Z,6.97
2019-01-21T16:59:01.120Z,20.57
2019-01-21T17:01:30.148Z,16.57
2019-01-21T17:03:59.196Z,14.03
2019-01-21T17:06:28.236Z,15.37
2019-01-21T17:08:57.288Z,20.03
2019-01-21T17:11:26.340Z,21.93
2019-01-21T17:13:55.462Z,19.37
2019-01-21T17:16:24.515Z,17.27
2019-01-21T17:18:53.574Z,19.70
2019-01-21T17:21:26.958Z,19.23
2019-01-21T17:23:53.335Z,18.97
2019-01-21T17:26:22.337Z,14.37
2019-01-21T17:28:51.384Z,14.67
2019-01-21T17:31:20.443Z,13.13
2019-01-21T17:33:49.398Z,11.13
2019-01-21T17:36:18.399Z,8.17
2019-01-21T17:38:47.453Z,8.83
2019-01-21T17:41:16.586Z,11.43
2019-01-21T17:43:45.566Z,14.03
2019-01-21T17:46:14.599Z,12.00
2019-01-21T17:48:43.593Z,8.50
2019-01-21T17:51:12.636Z,6.87
2019-01-21T17:53:41.675Z,8.27
2019-01-21T17:56:12.312Z,4.63
2019-01-21T17:58:41.362Z,7.80
2019-01-21T18:01:10.406Z,6.43
2019-01-21T18:03:39.430Z,5.83
2019-01-21T18:06:08.420Z,8.13
2019-01-21T18:08:37.483Z,4.30
2019-01-21T18:11:06.563Z,8.37
2019-01-21T18:13:35.952Z,6.43
2019-01-21T18:16:05.032Z,4.17
2019-01-21T18:18:34.070Z,7.73
2019-01-21T18:21:04.494Z,6.33
2019-01-21T18:23:33.526Z,10.50
2019-01-21T18:26:02.484Z,3.83
2019-01-21T18:28:31.673Z,7.23
2019-01-21T18:31:00.844Z,5.77
2019-01-21T18:33:30.072Z,5.00
2019-01-21T18:35:59.125Z,4.27
2019-01-21T18:38:28.169Z,7.77
2019-01-21T18:40:57.234Z,11.07
2019-01-21T18:43:26.286Z,12.93
2019-01-21T18:45:55.261Z,10.23
2019-01-21T18:48:24.295Z,27.27
2019-01-21T18:50:53.371Z,25.83
2019-01-21T18:53:22.428Z,36.17
2019-01-21T18:55:51.414Z,42.93
2019-01-21T18:58:20.534Z,53.73
2019-01-21T19:00:49.653Z,59.80
2019-01-21T19:04:24.266Z,46.00
2019-01-21T19:07:30.304Z,41.47
2019-01-21T19:09:56.751Z,34.60
2019-01-21T19:12:25.757Z,33.93
2019-01-21T19:14:54.836Z,31.30
2019-01-21T19:17:23.877Z,28.73
2019-01-21T19:19:52.951Z,31.47
2019-01-21T19:22:22.017Z,30.30
2019-01-21T19:24:51.088Z,27.77
2019-01-21T19:27:20.158Z,23.23
2019-01-21T19:29:49.234Z,24.90
2019-01-21T19:32:18.328Z,23.87
2019-01-21T19:34:47.418Z,24.80
2019-01-21T19:37:16.453Z,19.73
2019-01-21T19:39:45.562Z,16.13
2019-01-21T19:42:14.627Z,16.37
2019-01-21T19:44:43.670Z,21.57
2019-01-21T19:47:12.634Z,18.63
2019-01-21T19:49:41.778Z,20.27
2019-01-21T19:52:10.938Z,13.93
2019-01-21T19:54:40.013Z,17.37
2019-01-21T19:57:09.584Z,15.57
2019-01-21T19:59:38.727Z,13.80
2019-01-21T20:02:07.796Z,12.03
2019-01-21T20:04:36.818Z,12.33
2019-01-21T20:07:05.778Z,13.07
2019-01-21T20:09:34.865Z,12.40
2019-01-21T20:12:03.922Z,9.33
2019-01-21T20:14:32.918Z,17.27
2019-01-21T20:17:02.042Z,12.27
2019-01-21T20:19:31.117Z,11.03
2019-01-21T20:22:00.173Z,9.53
2019-01-21T20:24:29.211Z,15.20
2019-01-21T20:26:58.183Z,31.97
2019-01-21T20:29:27.228Z,24.53
2019-01-21T20:31:56.290Z,26.40
2019-01-21T20:34:25.277Z,20.63
2019-01-21T20:36:54.367Z,24.53
2019-01-21T20:39:23.442Z,21.03
2019-01-21T20:41:52.517Z,22.60
2019-01-21T20:44:21.617Z,18.17
2019-01-21T20:46:50.664Z,17.37
2019-01-21T20:49:19.718Z,18.23
2019-01-21T20:51:48.715Z,16.43
2019-01-21T20:54:17.749Z,14.30
2019-01-21T20:56:46.811Z,13.27
2019-01-21T20:59:15.880Z,13.47
2019-01-21T21:01:44.949Z,12.23
2019-01-21T21:04:14.001Z,12.13
2019-01-21T21:06:43.077Z,13.77
2019-01-21T21:09:12.144Z,11.83
2019-01-21T21:11:41.217Z,12.73
2019-01-21T21:14:10.280Z,8.93
2019-01-21T21:16:39.349Z,11.97
2019-01-21T21:19:08.392Z,11.77
2019-01-21T21:21:37.557Z,11.70
2019-01-21T21:24:06.819Z,12.63
2019-01-21T21:26:36.033Z,9.03
2019-01-21T21:29:05.334Z,10.33
2019-01-21T21:31:34.425Z,12.97
2019-01-21T21:34:03.493Z,10.67
2019-01-21T21:36:32.815Z,13.70
2019-01-21T21:39:01.898Z,10.23
2019-01-21T21:41:30.914Z,8.37
2019-01-21T21:44:00.077Z,8.37
2019-01-21T21:46:29.129Z,10.43
2019-01-21T21:48:58.581Z,8.13
2019-01-21T21:51:27.641Z,10.30
2019-01-21T21:53:56.709Z,10.03
2019-01-21T21:56:25.862Z,10.03
2019-01-21T21:58:54.910Z,10.20
2019-01-21T22:01:24.219Z,10.30
2019-01-21T22:03:53.254Z,9.03
2019-01-21T22:06:22.274Z,8.57
2019-01-21T22:08:51.750Z,10.27
2019-01-21T22:11:20.844Z,9.57
2019-01-21T22:13:49.961Z,8.53
2019-01-21T22:16:18.995Z,9.50
2019-01-21T22:18:48.077Z,11.30
2019-01-21T22:21:17.125Z,10.87
2019-01-21T22:23:46.186Z,8.47
2019-01-21T22:26:15.228Z,9.30
2019-01-21T22:28:44.597Z,10.13
2019-01-21T22:31:13.639Z,9.03
2019-01-21T22:33:42.703Z,9.73
2019-01-21T22:36:11.772Z,8.63
2019-01-21T22:38:40.846Z,8.67
2019-01-21T22:41:10.314Z,8.87
2019-01-21T22:43:39.344Z,9.40
2019-01-21T22:46:08.409Z,9.43
2019-01-21T22:48:37.526Z,8.17
2019-01-21T22:51:06.606Z,10.83
2019-01-21T22:53:35.941Z,10.83
2019-01-21T22:56:04.986Z,9.80
2019-01-21T22:58:34.056Z,8.73
2019-01-21T23:01:29.453Z,8.13
2019-01-21T23:03:58.570Z,7.90
2019-01-21T23:06:27.635Z,9.20
2019-01-21T23:08:56.780Z,8.97
2019-01-21T23:11:25.835Z,9.37
2019-01-21T23:13:54.886Z,7.70
2019-01-21T23:16:23.944Z,7.87
2019-01-21T23:18:53.021Z,9.13
2019-01-21T23:21:22.054Z,7.60
2019-01-21T23:23:51.083Z,8.53
2019-01-21T23:26:20.127Z,9.23
2019-01-21T23:28:49.557Z,8.37
2019-01-21T23:31:18.612Z,9.33
2019-01-21T23:33:47.673Z,9.40
2019-01-21T23:36:16.808Z,9.20
2019-01-21T23:38:45.876Z,9.53
2019-01-21T23:41:14.909Z,9.10
2019-01-21T23:43:44.022Z,7.57
2019-01-21T23:46:13.089Z,9.13
2019-01-21T23:48:42.124Z,9.90
2019-01-21T23:51:11.191Z,10.63
2019-01-21T23:53:40.250Z,9.87
2019-01-21T23:56:09.307Z,10.93
2019-01-21T23:58:38.417Z,10.90
